Time;durP1;ratioP1;P1;durP2;ratioP2;P2;SDS_P1;SDS_P2;PMS_P1;PMS_P2;Temp;Humidity;BMP_temperature;BMP_pressure;BME280_temperature;BME280_humidity;BME280_pressure;Samples;Min_cycle;Max_cycle;Signal;HPM_P1;HPM_P2
2021/10/01 00:00:30;;;;;;;5.40;2.08;;;5.30;99.90;;;;;;5034049;28;20366;-49
2021/10/01 00:02:56;;;;;;;1.65;1.25;;;5.30;99.90;;;;;;5034265;28;20021;-54
2021/10/01 00:05:22;;;;;;;1.73;1.40;;;5.30;99.90;;;;;;5033986;28;20515;-54
2021/10/01 00:07:49;;;;;;;4.68;2.03;;;5.30;99.90;;;;;;5034019;28;20488;-54
2021/10/01 00:10:15;;;;;;;6.15;1.60;;;5.30;99.90;;;;;;5023356;28;20485;-53
2021/10/01 00:12:40;;;;;;;2.67;1.40;;;5.30;99.90;;;;;;5034125;28;20033;-53
2021/10/01 00:15:07;;;;;;;2.50;1.60;;;5.30;99.90;;;;;;5033321;28;20068;-49
2021/10/01 00:17:32;;;;;;;2.33;1.20;;;5.40;99.90;;;;;;5053890;28;20040;-51
2021/10/01 00:19:58;;;;;;;1.95;1.23;;;5.40;99.90;;;;;;5053464;28;20033;-51
2021/10/01 00:22:24;;;;;;;2.90;1.55;;;5.40;99.90;;;;;;5053647;28;20476;-53
2021/10/01 00:24:49;;;;;;;1.77;1.55;;;5.40;99.90;;;;;;5052527;28;20033;-53
2021/10/01 00:27:17;;;;;;;2.42;1.48;;;5.40;99.90;;;;;;5053585;28;20427;-50
2021/10/01 00:29:43;;;;;;;2.15;1.85;;;5.50;99.90;;;;;;5053374;28;20032;-55
2021/10/01 00:32:09;;;;;;;2.22;1.52;;;5.50;99.90;;;;;;5053507;28;20039;-51
2021/10/01 00:34:35;;;;;;;2.75;1.80;;;5.60;99.90;;;;;;5053198;28;20025;-53
2021/10/01 00:37:00;;;;;;;3.50;1.55;;;5.70;99.90;;;;;;5034251;28;20390;-52
2021/10/01 00:39:26;;;;;;;5.13;1.75;;;5.80;99.90;;;;;;5024315;28;20045;-53
2021/10/01 00:41:51;;;;;;;4.45;1.90;;;6.00;99.90;;;;;;5033198;28;20029;-52
2021/10/01 00:44:17;;;;;;;5.13;1.90;;;6.10;99.90;;;;;;5034044;28;20658;-55
2021/10/01 00:46:42;;;;;;;2.08;1.75;;;6.20;99.90;;;;;;5034361;28;20059;-51
2021/10/01 00:49:08;;;;;;;3.17;1.98;;;6.30;99.90;;;;;;5033924;28;20072;-55
2021/10/01 00:51:35;;;;;;;4.18;2.17;;;6.40;99.90;;;;;;5034255;28;20075;-53
2021/10/01 00:54:01;;;;;;;7.63;1.92;;;6.50;99.90;;;;;;5034006;28;20079;-52
2021/10/01 00:56:27;;;;;;;3.95;2.28;;;6.60;99.90;;;;;;5033215;28;20091;-53
2021/10/01 00:58:53;;;;;;;6.85;1.83;;;6.60;99.90;;;;;;5033908;28;20529;-50
2021/10/01 01:01:19;;;;;;;3.65;2.25;;;6.70;99.90;;;;;;5033953;28;20022;-55
2021/10/01 01:03:52;;;;;;;3.53;2.25;;;6.80;99.90;;;;;;5034010;28;20036;-51
2021/10/01 01:06:56;;;;;;;2.92;1.73;;;6.90;99.90;;;;;;5033617;28;20148;-49
2021/10/01 01:09:31;;;;;;;4.13;2.38;;;6.90;99.90;;;;;;5032678;28;20033;-52
2021/10/01 01:12:28;;;;;;;2.97;1.92;;;6.90;99.90;;;;;;5033802;28;20022;-51
2021/10/01 01:15:06;;;;;;;4.93;1.75;;;6.90;99.90;;;;;;5033489;28;20028;-53
2021/10/01 01:17:41;;;;;;;3.30;1.50;;;7.00;99.90;;;;;;5033658;28;20033;-53
2021/10/01 01:20:12;;;;;;;2.85;1.60;;;7.00;99.90;;;;;;5033131;28;20032;-54
2021/10/01 01:22:43;;;;;;;2.13;1.45;;;7.00;99.90;;;;;;5033588;28;20049;-52
2021/10/01 01:25:51;;;;;;;2.58;1.77;;;6.90;99.90;;;;;;5032476;28;20072;-52
2021/10/01 01:28:47;;;;;;;2.70;1.80;;;6.90;99.90;;;;;;5032785;28;20049;-52
2021/10/01 01:31:37;;;;;;;5.90;1.70;;;6.80;99.90;;;;;;5033315;28;20021;-51
2021/10/01 01:34:03;;;;;;;3.90;1.63;;;6.80;99.90;;;;;;5033352;28;20037;-53
2021/10/01 01:36:30;;;;;;;2.83;1.83;;;6.70;99.90;;;;;;5033082;28;20052;-51
2021/10/01 01:38:58;;;;;;;2.33;1.70;;;6.70;99.90;;;;;;5033017;28;20488;-53
2021/10/01 01:41:24;;;;;;;2.92;1.65;;;6.60;99.90;;;;;;5032320;28;20401;-50
2021/10/01 01:43:53;;;;;;;3.70;1.85;;;6.60;99.90;;;;;;5033351;28;20426;-52
2021/10/01 01:46:20;;;;;;;7.15;1.88;;;6.50;99.90;;;;;;5032994;28;20022;-52
2021/10/01 01:48:46;;;;;;;4.05;1.85;;;6.40;99.90;;;;;;5033135;28;20519;-52
2021/10/01 01:51:12;;;;;;;1.80;1.50;;;6.40;99.90;;;;;;5032710;28;20034;-52
2021/10/01 01:53:38;;;;;;;3.00;1.67;;;6.40;99.90;;;;;;5033140;28;20034;-51
2021/10/01 01:56:06;;;;;;;2.80;1.80;;;6.30;99.90;;;;;;5032089;28;20029;-51
2021/10/01 01:58:33;;;;;;;5.88;1.80;;;6.20;99.90;;;;;;5032989;28;20029;-53
2021/10/01 02:00:59;;;;;;;4.63;1.40;;;6.20;99.90;;;;;;5032874;28;20025;-51
2021/10/01 02:03:26;;;;;;;4.60;1.52;;;6.10;99.90;;;;;;5033037;28;20049;-55
2021/10/01 02:05:57;;;;;;;3.50;1.30;;;6.10;99.90;;;;;;5032573;28;20017;-51
2021/10/01 02:08:23;;;;;;;4.60;1.60;;;6.10;99.90;;;;;;5032785;28;20037;-56
2021/10/01 02:10:50;;;;;;;2.90;1.42;;;6.00;99.90;;;;;;5031823;28;20034;-50
2021/10/01 02:13:17;;;;;;;4.88;2.03;;;6.00;99.90;;;;;;5032805;28;20026;-54
2021/10/01 02:15:44;;;;;;;3.20;1.75;;;5.90;99.90;;;;;;5014085;28;20026;-54
2021/10/01 02:18:10;;;;;;;5.50;2.17;;;5.90;99.90;;;;;;5012910;28;20034;-54
2021/10/01 02:20:38;;;;;;;5.32;1.40;;;5.90;99.90;;;;;;5012819;28;20112;-50
2021/10/01 02:23:04;;;;;;;3.67;1.90;;;5.80;99.90;;;;;;5012855;28;20482;-50
2021/10/01 02:28:42;;;;;;;5.43;1.95;;;5.80;99.90;;;;;;5013225;28;20036;-52
2021/10/01 02:31:17;;;;;;;4.80;1.75;;;5.80;99.90;;;;;;5012727;28;20409;-54
2021/10/01 02:33:45;;;;;;;3.55;1.92;;;5.80;99.90;;;;;;5012753;28;20073;-51
2021/10/01 02:36:11;;;;;;;3.70;1.83;;;5.80;99.90;;;;;;5015599;28;20109;-53
2021/10/01 02:38:37;;;;;;;5.45;1.55;;;5.80;99.90;;;;;;5034377;28;20095;-51
2021/10/01 02:41:04;;;;;;;3.22;1.58;;;5.70;99.90;;;;;;5035328;28;20033;-51
2021/10/01 02:43:30;;;;;;;2.05;1.40;;;5.70;99.90;;;;;;5036576;28;20072;-54
2021/10/01 02:45:55;;;;;;;4.88;1.73;;;5.70;99.90;;;;;;5036457;28;20026;-53
2021/10/01 02:48:21;;;;;;;3.13;1.85;;;5.70;99.90;;;;;;5036450;28;20100;-56
2021/10/01 02:50:57;;;;;;;3.75;1.92;;;5.60;99.90;;;;;;5036304;28;20108;-54
2021/10/01 02:53:32;;;;;;;4.10;1.83;;;5.60;99.90;;;;;;5036277;28;20025;-51
2021/10/01 02:56:14;;;;;;;2.97;1.85;;;5.60;99.90;;;;;;5035278;28;20045;-48
2021/10/01 02:58:59;;;;;;;7.25;3.42;;;5.60;99.90;;;;;;5036349;28;20029;-51
2021/10/01 03:01:28;;;;;;;2.83;1.75;;;5.60;99.90;;;;;;5036137;28;20045;-51
2021/10/01 03:03:59;;;;;;;2.50;2.10;;;5.60;99.90;;;;;;5036386;28;20385;-52
2021/10/01 03:06:28;;;;;;;3.03;1.60;;;5.60;99.90;;;;;;5035169;28;20034;-50
2021/10/01 03:08:54;;;;;;;3.88;1.60;;;5.60;99.90;;;;;;5035789;28;20535;-51
2021/10/01 03:11:24;;;;;;;1.98;1.67;;;5.60;99.90;;;;;;5035062;28;20033;-54
2021/10/01 03:13:50;;;;;;;6.82;2.08;;;5.60;99.90;;;;;;5035708;28;20083;-53
2021/10/01 03:16:20;;;;;;;4.50;2.08;;;5.60;99.90;;;;;;5034650;28;20037;-54
2021/10/01 03:18:47;;;;;;;2.15;1.58;;;5.60;99.90;;;;;;5034123;28;20377;-53
2021/10/01 03:21:15;;;;;;;2.58;2.00;;;5.50;99.90;;;;;;5035478;28;20034;-53
2021/10/01 03:23:42;;;;;;;3.42;1.95;;;5.60;99.90;;;;;;5035368;28;20457;-54
2021/10/01 03:26:08;;;;;;;2.58;1.60;;;5.50;99.90;;;;;;5034635;28;20037;-56
2021/10/01 03:28:36;;;;;;;4.28;1.80;;;5.50;99.90;;;;;;5035498;28;20044;-51
2021/10/01 03:31:02;;;;;;;3.13;1.95;;;5.50;99.90;;;;;;5035252;28;20091;-55
2021/10/01 03:33:28;;;;;;;2.83;2.00;;;5.50;99.90;;;;;;5035314;28;20102;-52
2021/10/01 03:35:54;;;;;;;4.88;2.42;;;5.50;99.90;;;;;;5035112;28;20072;-56
2021/10/01 03:38:20;;;;;;;3.42;2.00;;;5.50;99.90;;;;;;5035423;28;20033;-53
2021/10/01 03:40:46;;;;;;;6.13;1.85;;;5.50;99.90;;;;;;5034159;28;20374;-51
2021/10/01 03:43:14;;;;;;;3.78;1.95;;;5.50;99.90;;;;;;5035560;28;20384;-49
2021/10/01 03:45:39;;;;;;;2.33;2.00;;;5.50;99.90;;;;;;5034902;28;20022;-51
2021/10/01 03:48:05;;;;;;;3.70;2.00;;;5.50;99.90;;;;;;5034989;28;20132;-49
2021/10/01 03:50:32;;;;;;;2.47;1.85;;;5.60;99.90;;;;;;5032338;28;20025;-50
2021/10/01 03:52:57;;;;;;;3.17;2.38;;;5.50;99.90;;;;;;5028707;28;20461;-53
2021/10/01 03:55:23;;;;;;;4.15;1.80;;;5.60;99.90;;;;;;5022769;28;20053;-50
2021/10/01 03:57:50;;;;;;;4.60;2.22;;;5.60;99.90;;;;;;5016098;28;20025;-53
2021/10/01 04:00:17;;;;;;;4.47;2.28;;;5.60;99.90;;;;;;5034672;28;20025;-50
2021/10/01 04:02:43;;;;;;;2.00;1.58;;;5.60;99.90;;;;;;5031776;28;20052;-50
2021/10/01 04:05:08;;;;;;;5.82;2.42;;;5.70;99.90;;;;;;5014963;28;20521;-52
2021/10/01 04:07:34;;;;;;;5.57;2.30;;;5.70;99.90;;;;;;5029400;28;20389;-54
2021/10/01 04:09:59;;;;;;;3.05;2.08;;;5.70;99.90;;;;;;5033089;28;20113;-53
2021/10/01 04:12:27;;;;;;;5.93;2.35;;;5.70;99.90;;;;;;5034412;28;20032;-50
2021/10/01 04:14:52;;;;;;;6.60;2.15;;;5.70;99.90;;;;;;5034154;28;20029;-50
2021/10/01 04:17:19;;;;;;;2.88;2.00;;;5.70;99.90;;;;;;5031031;28;20071;-50
2021/10/01 04:19:45;;;;;;;3.15;2.05;;;5.70;99.90;;;;;;5032947;28;20063;-53
2021/10/01 04:22:10;;;;;;;4.20;1.80;;;5.70;99.90;;;;;;5033810;28;20057;-49
2021/10/01 04:24:36;;;;;;;1.95;1.55;;;5.70;99.90;;;;;;5032603;28;20033;-50
2021/10/01 04:27:02;;;;;;;2.60;1.92;;;5.70;99.90;;;;;;5034428;28;20377;-53
2021/10/01 04:29:27;;;;;;;4.28;2.17;;;5.70;99.90;;;;;;5033958;28;20030;-53
2021/10/01 04:31:53;;;;;;;4.43;2.47;;;5.70;99.90;;;;;;5033914;28;20159;-52
2021/10/01 04:34:19;;;;;;;2.45;1.70;;;5.70;99.90;;;;;;5033793;28;20033;-56
2021/10/01 04:36:44;;;;;;;5.78;1.95;;;5.70;99.90;;;;;;5033629;28;20025;-50
2021/10/01 04:39:12;;;;;;;5.75;2.72;;;5.70;99.90;;;;;;5033427;28;20120;-49
2021/10/01 04:41:37;;;;;;;2.55;1.58;;;5.70;99.90;;;;;;5032562;28;20452;-51
2021/10/01 04:44:03;;;;;;;4.15;2.17;;;5.80;99.90;;;;;;5033557;28;20045;-49
2021/10/01 04:46:29;;;;;;;4.28;1.85;;;5.80;99.90;;;;;;5033695;28;20052;-51
2021/10/01 04:48:55;;;;;;;2.75;2.08;;;5.70;99.90;;;;;;5033145;28;20075;-54
2021/10/01 04:51:21;;;;;;;3.55;2.05;;;5.70;99.90;;;;;;5033854;28;20383;-50
2021/10/01 04:53:46;;;;;;;5.68;2.25;;;5.70;99.90;;;;;;5032456;28;20029;-52
2021/10/01 04:56:12;;;;;;;3.65;2.00;;;5.70;99.90;;;;;;5032339;28;20029;-50
2021/10/01 04:58:37;;;;;;;3.30;1.98;;;5.70;99.90;;;;;;5032063;28;20061;-53
2021/10/01 05:01:03;;;;;;;6.40;1.80;;;5.70;99.90;;;;;;5032339;28;20108;-53
2021/10/01 05:03:29;;;;;;;3.22;2.40;;;5.70;99.90;;;;;;5033393;28;20350;-55
2021/10/01 05:05:55;;;;;;;3.97;2.40;;;5.70;99.90;;;;;;5033647;28;20029;-47
2021/10/01 05:08:21;;;;;;;6.35;2.03;;;5.70;99.90;;;;;;5033698;28;20116;-54
2021/10/01 05:10:46;;;;;;;3.63;2.40;;;5.70;99.90;;;;;;5032482;28;20112;-52
2021/10/01 05:13:12;;;;;;;4.57;2.72;;;5.70;99.90;;;;;;5033876;28;20429;-48
2021/10/01 05:15:43;;;;;;;2.15;1.80;;;5.80;99.90;;;;;;5033279;28;20038;-51
2021/10/01 05:18:12;;;;;;;3.55;2.40;;;5.80;99.90;;;;;;5028193;28;20458;-50
2021/10/01 05:20:38;;;;;;;5.82;2.42;;;5.90;99.90;;;;;;5014746;28;20033;-49
2021/10/01 05:23:03;;;;;;;5.25;2.15;;;6.00;99.90;;;;;;5022427;28;20025;-49
2021/10/01 05:25:29;;;;;;;5.25;2.63;;;6.00;99.90;;;;;;5030597;28;20026;-52
2021/10/01 05:27:54;;;;;;;6.13;2.40;;;6.10;99.90;;;;;;5031878;28;20029;-53
2021/10/01 05:30:21;;;;;;;6.05;2.45;;;6.20;99.90;;;;;;5033292;28;20033;-52
2021/10/01 05:32:46;;;;;;;6.40;2.85;;;6.30;99.90;;;;;;5033083;28;20488;-52
2021/10/01 05:35:12;;;;;;;3.35;2.22;;;6.40;99.90;;;;;;5033340;28;20026;-47
2021/10/01 05:37:38;;;;;;;3.30;2.22;;;6.50;99.90;;;;;;5028723;28;20037;-52
2021/10/01 05:40:05;;;;;;;3.83;2.90;;;6.60;99.90;;;;;;5032151;28;20416;-50
2021/10/01 05:42:30;;;;;;;7.85;2.70;;;6.70;99.90;;;;;;5032753;28;20191;-54
2021/10/01 05:44:56;;;;;;;7.57;3.22;;;6.80;99.90;;;;;;5032872;28;20120;-52
2021/10/01 05:47:21;;;;;;;8.35;3.05;;;6.90;99.90;;;;;;5032935;28;20029;-52
2021/10/01 05:49:48;;;;;;;5.22;2.90;;;7.10;99.90;;;;;;5031695;28;20022;-50
2021/10/01 05:54:47;;;;;;;3.58;2.38;;;7.60;99.90;;;;;;5031723;28;20025;-55
2021/10/01 05:57:13;;;;;;;3.70;2.42;;;8.20;99.90;;;;;;5032604;28;20030;-52
2021/10/01 05:59:40;;;;;;;4.68;2.50;;;9.00;99.90;;;;;;5032742;28;20330;-54
2021/10/01 06:02:14;;;;;;;3.85;2.35;;;9.50;99.90;;;;;;5031938;28;20487;-51
2021/10/01 06:04:40;;;;;;;4.15;1.77;;;10.00;99.90;;;;;;5032562;28;20048;-54
2021/10/01 06:07:07;;;;;;;2.47;1.35;;;10.50;99.90;;;;;;4969384;28;20103;-53
2021/10/01 06:09:32;;;;;;;4.68;1.20;;;11.00;99.90;;;;;;5026677;28;20121;-51
2021/10/01 06:11:58;;;;;;;3.97;1.67;;;11.50;99.90;;;;;;5031996;28;20520;-53
2021/10/01 06:14:25;;;;;;;4.45;1.33;;;11.90;99.90;;;;;;5024450;28;20070;-53
2021/10/01 06:16:52;;;;;;;3.72;1.70;;;12.20;99.90;;;;;;5012755;28;20028;-49
2021/10/01 06:19:18;;;;;;;2.45;1.75;;;12.50;99.90;;;;;;5012795;28;20025;-53
2021/10/01 06:21:44;;;;;;;2.33;1.35;;;12.50;99.90;;;;;;5019705;28;20029;-55
2021/10/01 06:24:10;;;;;;;2.53;1.60;;;12.50;99.90;;;;;;5032613;28;20029;-53
2021/10/01 06:26:35;;;;;;;3.35;1.27;;;12.60;99.90;;;;;;5031274;28;20437;-54
2021/10/01 06:29:01;;;;;;;3.10;1.10;;;12.70;99.90;;;;;;5032438;28;20033;-55
2021/10/01 06:31:26;;;;;;;3.25;2.08;;;12.90;99.90;;;;;;5031206;28;20103;-53
2021/10/01 06:33:52;;;;;;;2.20;1.25;;;12.90;99.90;;;;;;5027940;28;20466;-58
2021/10/01 06:36:20;;;;;;;2.22;1.25;;;12.90;99.90;;;;;;5025552;28;20087;-50
2021/10/01 06:38:46;;;;;;;3.75;1.30;;;12.90;99.90;;;;;;5032190;28;20021;-49
2021/10/01 06:41:13;;;;;;;2.38;1.30;;;13.10;99.90;;;;;;5013976;28;20022;-51
2021/10/01 06:43:39;;;;;;;5.68;1.38;;;13.40;99.90;;;;;;5012436;28;20037;-54
2021/10/01 06:46:12;;;;;;;4.32;1.42;;;13.80;99.90;;;;;;5012647;28;20060;-53
2021/10/01 06:49:10;;;;;;;2.83;1.08;;;14.30;99.90;;;;;;5012454;28;20032;-51
2021/10/01 07:21:00;;;;;;;4.15;1.95;;;14.90;99.90;;;;;;5011928;28;20045;-50
2021/10/01 07:36:16;;;;;;;2.72;1.55;;;19.60;72.00;;;;;;5028540;28;20044;-52
2021/10/01 08:20:01;;;;;;;2.53;1.05;;;16.60;68.50;;;;;;5024819;28;20036;-53
2021/10/01 08:22:27;;;;;;;2.17;1.08;;;16.50;66.00;;;;;;5030641;28;20492;-52
2021/10/01 08:24:54;;;;;;;4.28;1.38;;;16.60;66.80;;;;;;5033630;28;20022;-50
2021/10/01 08:27:23;;;;;;;4.57;1.30;;;16.50;62.30;;;;;;5031895;28;20033;-48
2021/10/01 08:29:49;;;;;;;5.00;1.38;;;16.50;64.40;;;;;;5034222;28;20185;-50
2021/10/01 08:32:15;;;;;;;2.47;1.05;;;16.50;64.70;;;;;;5034433;28;20477;-50
2021/10/01 08:34:45;;;;;;;2.42;1.25;;;16.60;65.20;;;;;;5034418;28;20036;-53
2021/10/01 08:37:11;;;;;;;1.88;0.88;;;16.60;64.30;;;;;;5033716;28;20100;-52
2021/10/01 08:39:37;;;;;;;1.67;1.00;;;16.60;61.60;;;;;;5033494;28;20643;-48
2021/10/01 08:42:03;;;;;;;1.88;1.00;;;16.70;68.50;;;;;;5034123;28;20100;-52
2021/10/01 08:44:30;;;;;;;1.88;1.00;;;16.90;69.00;;;;;;5033985;28;20072;-53
2021/10/01 08:46:57;;;;;;;2.85;1.20;;;17.10;67.60;;;;;;5034188;28;20021;-54
2021/10/01 08:49:25;;;;;;;3.55;1.20;;;17.20;66.30;;;;;;5034142;28;20034;-52
2021/10/01 08:51:51;;;;;;;1.65;0.85;;;17.50;63.30;;;;;;5034191;28;20088;-51
2021/10/01 08:54:18;;;;;;;4.38;1.27;;;17.70;67.30;;;;;;5033148;28;20482;-54
2021/10/01 08:56:44;;;;;;;1.33;0.80;;;17.90;66.50;;;;;;5034065;28;20485;-51
2021/10/01 08:59:12;;;;;;;2.45;1.00;;;17.90;55.20;;;;;;5033816;28;20121;-52
2021/10/01 09:01:37;;;;;;;0.73;0.57;;;17.90;63.10;;;;;;5033905;28;20485;-51
2021/10/01 09:04:04;;;;;;;1.63;0.70;;;18.10;64.70;;;;;;5034007;28;20053;-51
2021/10/01 09:06:30;;;;;;;1.20;0.80;;;18.30;65.60;;;;;;5033819;28;20045;-49
2021/10/01 09:09:00;;;;;;;1.73;0.93;;;18.50;63.40;;;;;;5033771;28;20548;-50
2021/10/01 09:11:29;;;;;;;2.33;0.80;;;18.60;62.50;;;;;;5032764;28;20021;-50
2021/10/01 09:13:59;;;;;;;1.00;0.70;;;18.70;56.70;;;;;;5029652;28;20397;-53
2021/10/01 09:16:25;;;;;;;2.35;0.82;;;18.80;61.40;;;;;;5013905;28;20026;-50
2021/10/01 09:18:51;;;;;;;1.45;0.85;;;19.00;59.90;;;;;;5013739;28;20022;-53
2021/10/01 09:21:21;;;;;;;1.15;0.80;;;19.20;58.20;;;;;;5013838;28;20030;-53
2021/10/01 09:24:15;;;;;;;1.50;0.73;;;19.40;52.60;;;;;;5013714;28;20025;-55
2021/10/01 09:26:49;;;;;;;2.05;1.00;;;19.30;45.80;;;;;;4998360;28;20030;-48
2021/10/01 09:29:27;;;;;;;3.05;0.90;;;19.10;46.00;;;;;;5013551;28;20022;-52
2021/10/01 09:31:54;;;;;;;4.20;1.05;;;19.00;46.50;;;;;;5013569;28;20056;-46
2021/10/01 09:34:22;;;;;;;1.27;0.70;;;19.00;53.20;;;;;;5013276;28;20042;-50
2021/10/01 09:37:01;;;;;;;1.50;0.70;;;19.10;52.90;;;;;;5021531;28;20022;-51
2021/10/01 09:39:34;;;;;;;0.88;0.60;;;19.20;46.90;;;;;;5032093;28;20037;-51
2021/10/01 09:42:22;;;;;;;0.95;0.68;;;19.20;52.30;;;;;;5033117;28;20013;-55
2021/10/01 09:45:01;;;;;;;0.70;0.70;;;19.40;47.60;;;;;;5032920;28;20032;-50
2021/10/01 09:47:33;;;;;;;2.13;0.80;;;19.50;49.80;;;;;;5032238;28;20028;-53
2021/10/01 09:50:03;;;;;;;3.22;0.82;;;19.20;44.50;;;;;;5031583;28;20029;-53
2021/10/01 09:52:53;;;;;;;1.55;0.82;;;19.20;49.20;;;;;;5033024;28;20033;-53
2021/10/01 09:55:22;;;;;;;1.40;0.90;;;19.00;47.20;;;;;;5031804;28;20105;-51
2021/10/01 09:58:05;;;;;;;1.58;0.88;;;18.90;45.80;;;;;;5032862;28;20067;-49
2021/10/01 10:00:42;;;;;;;2.65;0.90;;;18.90;45.40;;;;;;5032754;28;20018;-46
2021/10/01 10:03:28;;;;;;;2.65;0.68;;;18.70;46.90;;;;;;5032586;28;20516;-48
2021/10/01 10:06:02;;;;;;;2.53;0.73;;;18.60;46.80;;;;;;5032843;28;20473;-50
2021/10/01 10:08:28;;;;;;;3.10;0.95;;;18.60;46.60;;;;;;5032739;28;20493;-51
2021/10/01 10:10:55;;;;;;;1.63;0.73;;;18.40;46.10;;;;;;5031807;28;20075;-50
2021/10/01 10:13:37;;;;;;;1.80;0.80;;;18.40;47.50;;;;;;5032553;28;20419;-50
2021/10/01 10:16:22;;;;;;;1.63;0.80;;;18.40;47.10;;;;;;5012813;28;20084;-53
2021/10/01 10:19:00;;;;;;;2.03;0.60;;;18.20;46.90;;;;;;5012809;28;20505;-52
2021/10/01 10:21:27;;;;;;;1.60;0.90;;;18.20;48.00;;;;;;5012815;28;20386;-49
2021/10/01 10:23:53;;;;;;;0.95;0.60;;;18.10;44.70;;;;;;5012814;28;20417;-48
2021/10/01 10:26:20;;;;;;;2.17;0.75;;;18.10;48.00;;;;;;5020481;28;20021;-50
2021/10/01 10:28:47;;;;;;;1.77;0.68;;;18.00;48.50;;;;;;5032279;28;20404;-51
2021/10/01 10:31:16;;;;;;;0.70;0.70;;;18.00;48.40;;;;;;5032205;28;20036;-47
2021/10/01 10:33:43;;;;;;;2.00;1.00;;;18.10;48.00;;;;;;5032316;28;20025;-54
2021/10/01 10:36:38;;;;;;;1.55;0.65;;;18.00;46.40;;;;;;5032340;28;20026;-54
2021/10/01 10:39:12;;;;;;;1.75;0.70;;;17.90;48.60;;;;;;5032051;28;20045;-50
2021/10/01 10:41:40;;;;;;;1.25;0.63;;;18.00;47.30;;;;;;5032320;28;20017;-50
2021/10/01 10:44:06;;;;;;;1.65;1.08;;;18.00;47.20;;;;;;5032310;28;20029;-48
2021/10/01 10:46:39;;;;;;;1.52;0.68;;;18.10;48.00;;;;;;5032401;28;20071;-50
2021/10/01 10:49:23;;;;;;;2.63;0.60;;;18.20;48.20;;;;;;5032046;28;20055;-50
2021/10/01 10:52:02;;;;;;;1.30;0.45;;;18.30;48.50;;;;;;5032371;28;20538;-50
2021/10/01 10:54:30;;;;;;;2.40;0.90;;;18.30;48.20;;;;;;5031204;28;20029;-49
2021/10/01 10:57:25;;;;;;;1.00;0.60;;;18.30;49.00;;;;;;5032359;28;20037;-50
2021/10/01 10:59:54;;;;;;;2.30;0.70;;;18.30;47.20;;;;;;5034114;28;20032;-49
2021/10/01 11:02:35;;;;;;;1.00;0.70;;;18.30;47.70;;;;;;5035999;28;20018;-49
2021/10/01 11:05:22;;;;;;;1.38;0.65;;;18.20;46.70;;;;;;5035995;28;20018;-49
2021/10/01 11:08:02;;;;;;;0.75;0.55;;;18.20;46.20;;;;;;5035964;28;20509;-48
2021/10/01 11:10:40;;;;;;;2.95;0.80;;;18.10;46.30;;;;;;5034918;28;20085;-49
2021/10/01 11:13:26;;;;;;;2.05;0.90;;;18.10;45.70;;;;;;5035891;28;20053;-53
2021/10/01 11:16:12;;;;;;;2.72;0.40;;;18.00;44.00;;;;;;5016198;28;20381;-49
2021/10/01 11:18:47;;;;;;;1.63;0.70;;;17.90;43.40;;;;;;5015842;28;20084;-52
2021/10/01 11:21:32;;;;;;;1.15;0.60;;;17.90;43.70;;;;;;5015996;28;20018;-55
2021/10/01 11:24:14;;;;;;;3.25;0.90;;;17.90;43.70;;;;;;5016048;28;20124;-52
2021/10/01 11:26:42;;;;;;;1.88;0.80;;;17.90;42.20;;;;;;5016004;28;20029;-53
2021/10/01 11:29:27;;;;;;;3.03;0.75;;;17.90;41.40;;;;;;5015523;28;20544;-55
2021/10/01 11:31:56;;;;;;;1.48;0.60;;;17.90;43.80;;;;;;5015934;28;20108;-52
2021/10/01 11:34:39;;;;;;;2.78;0.60;;;17.90;41.80;;;;;;5015398;28;20116;-49
2021/10/01 11:37:23;;;;;;;1.40;0.75;;;17.90;42.20;;;;;;5025833;28;20477;-50
2021/10/01 11:39:51;;;;;;;2.10;0.60;;;17.90;43.90;;;;;;5034473;28;20040;-49
2021/10/01 11:42:22;;;;;;;0.65;0.60;;;17.90;41.60;;;;;;5035405;28;20021;-52
2021/10/01 11:44:48;;;;;;;2.53;0.68;;;17.80;42.90;;;;;;5035210;28;20026;-49
2021/10/01 11:47:14;;;;;;;2.25;0.80;;;17.80;41.30;;;;;;5035252;28;20060;-47
2021/10/01 11:49:39;;;;;;;2.50;0.80;;;17.80;41.30;;;;;;5035061;28;20105;-47
2021/10/01 11:52:12;;;;;;;3.20;0.82;;;17.70;40.50;;;;;;5035182;28;20065;-52
2021/10/01 11:54:52;;;;;;;1.73;0.60;;;17.70;40.50;;;;;;5034268;28;20117;-49
2021/10/01 11:57:17;;;;;;;1.58;0.50;;;17.70;41.10;;;;;;5035072;28;20509;-51
2021/10/01 11:59:52;;;;;;;1.67;0.60;;;17.80;42.10;;;;;;5034996;28;20117;-50
2021/10/01 12:02:44;;;;;;;1.70;0.75;;;17.80;43.20;;;;;;5034956;28;20436;-52
2021/10/01 12:05:27;;;;;;;2.03;0.82;;;17.80;38.60;;;;;;5034815;28;20022;-48
2021/10/01 12:08:10;;;;;;;1.05;0.47;;;17.80;40.20;;;;;;5034707;28;20071;-53
2021/10/01 12:10:44;;;;;;;1.80;0.68;;;17.80;41.30;;;;;;5033034;28;20060;-51
2021/10/01 12:13:14;;;;;;;0.60;0.40;;;17.80;42.10;;;;;;5034963;28;20064;-52
2021/10/01 12:15:48;;;;;;;1.38;0.60;;;17.80;43.10;;;;;;5016475;28;20321;-50
2021/10/01 12:18:44;;;;;;;1.48;0.50;;;17.80;43.70;;;;;;5015059;28;20109;-53
2021/10/01 12:21:19;;;;;;;2.13;0.80;;;17.80;40.10;;;;;;5014686;28;20034;-49
2021/10/01 12:23:46;;;;;;;0.77;0.50;;;17.70;40.20;;;;;;5013791;28;20358;-47
2021/10/01 12:26:22;;;;;;;1.90;0.55;;;17.80;40.80;;;;;;5013893;28;20029;-53
2021/10/01 12:29:15;;;;;;;;;;;17.80;41.20;;;;;;5015307;28;20400;-55
2021/10/01 12:31:48;;;;;;;1.75;0.60;;;17.80;42.80;;;;;;5012707;28;19960;-51
2021/10/01 12:34:20;;;;;;;1.35;0.77;;;17.90;39.80;;;;;;5014451;28;20055;-51
2021/10/01 12:36:47;;;;;;;0.77;0.60;;;17.90;38.50;;;;;;5022375;28;20095;-53
2021/10/01 12:39:15;;;;;;;1.08;0.80;;;17.80;37.60;;;;;;5033286;28;20043;-48
2021/10/01 12:41:41;;;;;;;3.33;0.60;;;17.80;39.00;;;;;;5034404;28;20045;-52
2021/10/01 12:44:11;;;;;;;1.45;0.68;;;17.90;39.00;;;;;;5034089;28;20531;-52
2021/10/01 12:46:37;;;;;;;1.70;0.60;;;17.90;39.00;;;;;;5034380;28;20216;-50
2021/10/01 12:49:27;;;;;;;3.38;0.70;;;17.90;37.80;;;;;;5034285;28;20496;-55
2021/10/01 12:52:13;;;;;;;1.13;0.60;;;17.90;38.40;;;;;;5034092;28;20021;-49
2021/10/01 12:54:44;;;;;;;2.53;0.70;;;17.90;37.90;;;;;;5031786;28;20473;-53
2021/10/01 12:57:28;;;;;;;0.43;0.43;;;18.00;39.00;;;;;;5034195;28;20052;-48
2021/10/01 12:59:56;;;;;;;1.65;0.60;;;18.00;39.30;;;;;;5030189;28;20029;-53
2021/10/01 13:02:23;;;;;;;1.13;0.70;;;18.00;37.40;;;;;;5030798;28;20025;-48
2021/10/01 13:04:57;;;;;;;0.60;0.50;;;18.00;38.40;;;;;;5033860;28;20449;-53
2021/10/01 13:07:33;;;;;;;1.00;0.70;;;18.00;39.30;;;;;;5033613;28;20042;-50
2021/10/01 13:10:17;;;;;;;2.33;0.65;;;18.00;38.30;;;;;;5026755;28;20022;-51
2021/10/01 13:12:53;;;;;;;1.42;0.80;;;18.00;39.40;;;;;;5014341;28;20026;-51
2021/10/01 13:15:42;;;;;;;1.70;0.80;;;17.90;39.60;;;;;;5028857;28;20032;-51
2021/10/01 13:18:20;;;;;;;3.97;0.85;;;18.00;40.90;;;;;;5027473;28;20026;-48
2021/10/01 13:20:49;;;;;;;2.60;0.90;;;18.00;39.50;;;;;;5013782;28;20025;-47
2021/10/01 13:23:55;;;;;;;1.55;0.82;;;17.90;38.60;;;;;;5013618;28;20549;-51
2021/10/01 13:26:24;;;;;;;1.77;0.70;;;17.90;41.30;;;;;;4990735;28;20062;-54
2021/10/01 13:28:52;;;;;;;1.50;0.63;;;17.90;41.50;;;;;;4991906;28;20118;-51
2021/10/01 13:31:21;;;;;;;2.35;0.68;;;17.90;41.00;;;;;;5002842;28;20169;-51
2021/10/01 13:33:55;;;;;;;5.88;0.68;;;17.90;41.40;;;;;;5013645;28;20030;-49
2021/10/01 13:36:21;;;;;;;2.85;0.95;;;17.90;40.50;;;;;;5017227;28;20025;-49
2021/10/01 13:38:47;;;;;;;1.35;0.95;;;17.90;40.90;;;;;;5033177;28;20029;-50
2021/10/01 13:41:15;;;;;;;1.40;0.80;;;17.80;39.20;;;;;;5030881;28;20033;-49
2021/10/01 13:43:42;;;;;;;1.48;0.70;;;17.80;39.40;;;;;;5033232;28;20053;-54
2021/10/01 13:46:09;;;;;;;0.98;0.63;;;17.70;39.10;;;;;;5033048;28;20053;-48
2021/10/01 13:48:35;;;;;;;3.20;0.85;;;17.70;39.80;;;;;;5032984;28;20061;-48
2021/10/01 13:51:01;;;;;;;3.17;0.77;;;17.70;38.60;;;;;;5032718;28;20030;-48
2021/10/01 13:53:27;;;;;;;1.77;1.02;;;17.70;38.40;;;;;;5033004;28;20030;-50
2021/10/01 13:55:53;;;;;;;1.40;0.90;;;17.70;39.50;;;;;;5031767;28;20026;-48
2021/10/01 13:58:19;;;;;;;4.93;1.13;;;17.60;39.60;;;;;;5032931;28;20112;-53
2021/10/01 14:00:45;;;;;;;2.58;0.57;;;17.60;37.80;;;;;;5032784;28;20017;-49
2021/10/01 14:03:12;;;;;;;2.35;0.80;;;17.60;38.00;;;;;;5031673;28;20112;-49
2021/10/01 14:05:38;;;;;;;1.40;0.70;;;17.60;38.30;;;;;;5032324;28;20041;-50
2021/10/01 14:08:04;;;;;;;4.72;0.70;;;17.60;38.80;;;;;;5032554;28;20046;-50
2021/10/01 14:10:31;;;;;;;1.35;0.75;;;17.60;37.80;;;;;;5031713;28;20484;-51
2021/10/01 14:12:57;;;;;;;3.15;0.80;;;17.60;37.80;;;;;;5032837;28;20119;-54
2021/10/01 14:15:28;;;;;;;0.80;0.40;;;17.60;38.40;;;;;;5032455;28;20025;-51
2021/10/01 14:17:53;;;;;;;0.50;0.50;;;17.60;37.80;;;;;;5032613;28;20034;-50
2021/10/01 14:20:22;;;;;;;3.55;0.68;;;17.60;37.10;;;;;;5032493;28;20048;-52
2021/10/01 14:22:48;;;;;;;2.33;0.90;;;17.60;35.90;;;;;;5032510;28;20067;-52
2021/10/01 14:25:15;;;;;;;0.82;0.60;;;17.50;36.20;;;;;;5031533;28;20018;-50
2021/10/01 14:27:41;;;;;;;2.80;0.60;;;17.50;36.00;;;;;;5032473;28;20072;-52
2021/10/01 14:30:10;;;;;;;1.08;0.98;;;17.50;36.10;;;;;;5032505;28;20013;-50
2021/10/01 14:32:35;;;;;;;1.48;0.82;;;17.40;37.20;;;;;;5032281;28;20025;-52
2021/10/01 14:35:01;;;;;;;1.85;0.63;;;17.40;37.30;;;;;;5031738;28;20021;-52
2021/10/01 14:37:27;;;;;;;1.40;0.82;;;17.40;37.00;;;;;;5019029;28;20096;-49